Time;durP1;ratioP1;P1;durP2;ratioP2;P2;SDS_P1;SDS_P2;PMS_P1;PMS_P2;Temp;Humidity;BMP_temperature;BMP_pressure;BME280_temperature;BME280_humidity;BME280_pressure;Samples;Min_cycle;Max_cycle;Signal;HPM_P1;HPM_P2
2024/04/14 00:01:11;;;;;;;1.30;0.90;;;18.10;63.10;;;;;;6390114;22;20671;-84
2024/04/14 00:03:37;;;;;;;0.77;0.70;;;18.10;62.90;;;;;;6475238;22;20679;-83
2024/04/14 00:06:03;;;;;;;1.27;1.10;;;18.20;63.00;;;;;;6474996;22;20329;-84
2024/04/14 00:08:30;;;;;;;0.85;0.82;;;18.20;63.00;;;;;;6475224;22;20291;-84
2024/04/14 00:10:57;;;;;;;1.55;1.13;;;18.20;62.90;;;;;;6432501;22;20254;-84
2024/04/14 00:13:24;;;;;;;1.10;0.90;;;18.20;62.90;;;;;;6476980;22;21091;-84
2024/04/14 00:15:58;;;;;;;0.88;0.60;;;18.20;62.90;;;;;;6475095;22;20219;-84
2024/04/14 00:18:24;;;;;;;2.05;1.48;;;18.20;62.90;;;;;;6432637;22;20245;-84
2024/04/14 00:20:50;;;;;;;0.95;0.82;;;18.20;62.90;;;;;;6432860;22;20219;-84
2024/04/14 00:23:17;;;;;;;1.20;0.90;;;18.10;62.80;;;;;;6432863;22;20659;-83
2024/04/14 00:25:44;;;;;;;2.17;1.10;;;18.20;62.90;;;;;;6432645;22;20223;-84
2024/04/14 00:28:09;;;;;;;0.82;0.80;;;18.20;62.90;;;;;;6432505;22;20223;-84
2024/04/14 00:30:35;;;;;;;1.00;0.90;;;18.20;62.90;;;;;;6474826;22;20772;-84
2024/04/14 00:33:01;;;;;;;2.55;0.95;;;18.20;63.00;;;;;;6474492;22;20758;-84
2024/04/14 00:35:28;;;;;;;0.98;0.90;;;18.20;63.00;;;;;;6474908;22;20689;-83
2024/04/14 00:37:54;;;;;;;1.70;0.88;;;18.20;62.90;;;;;;6476694;22;20261;-84
2024/04/14 00:40:23;;;;;;;1.02;0.90;;;18.10;62.80;;;;;;6474723;22;20257;-84
2024/04/14 00:42:57;;;;;;;1.15;0.80;;;18.20;62.90;;;;;;6389961;22;20223;-84
2024/04/14 00:45:26;;;;;;;3.30;0.90;;;18.10;62.90;;;;;;6431568;22;20214;-84
2024/04/14 00:47:56;;;;;;;1.52;0.80;;;18.20;62.90;;;;;;6431647;22;20329;-84
2024/04/14 00:50:24;;;;;;;1.20;0.90;;;18.20;62.90;;;;;;6432257;22;20216;-84
2024/04/14 00:52:51;;;;;;;1.00;0.90;;;18.20;62.80;;;;;;6431638;22;20299;-83
2024/04/14 00:55:17;;;;;;;1.48;1.08;;;18.20;62.90;;;;;;6473554;22;20272;-84
2024/04/14 00:57:44;;;;;;;1.42;1.02;;;18.20;62.90;;;;;;6432545;22;20223;-84
2024/04/14 01:00:11;;;;;;;0.95;0.70;;;18.20;62.90;;;;;;6432394;22;20255;-84
2024/04/14 01:02:37;;;;;;;0.80;0.80;;;18.20;62.90;;;;;;6475014;22;20219;-83
2024/04/14 01:05:04;;;;;;;1.45;0.93;;;18.20;62.90;;;;;;6432481;22;20336;-84
2024/04/14 01:07:30;;;;;;;0.70;0.68;;;18.10;62.90;;;;;;6432758;22;20318;-83
2024/04/14 01:09:56;;;;;;;0.88;0.70;;;18.20;62.90;;;;;;6432255;22;20227;-84
2024/04/14 01:12:23;;;;;;;1.25;0.95;;;18.20;62.90;;;;;;6476543;22;20265;-84
2024/04/14 01:14:54;;;;;;;1.55;0.95;;;18.20;62.90;;;;;;6474663;22;20219;-83
2024/04/14 01:17:19;;;;;;;1.38;1.00;;;18.20;62.80;;;;;;6431688;22;20215;-84
2024/04/14 01:19:46;;;;;;;1.67;1.00;;;18.20;62.80;;;;;;6475051;22;20261;-84
2024/04/14 01:22:12;;;;;;;1.38;0.80;;;18.20;62.70;;;;;;6474735;22;20219;-84
2024/04/14 01:24:38;;;;;;;0.70;0.70;;;18.20;62.70;;;;;;6432401;22;20701;-83
2024/04/14 01:27:04;;;;;;;1.00;0.85;;;18.20;62.60;;;;;;6432080;22;20804;-84
2024/04/14 01:29:29;;;;;;;1.33;0.95;;;18.20;62.60;;;;;;6432547;22;20678;-84
2024/04/14 01:31:55;;;;;;;2.35;0.88;;;18.20;62.70;;;;;;6474636;22;20263;-84
2024/04/14 01:34:28;;;;;;;1.10;1.00;;;18.20;62.50;;;;;;6432007;22;20745;-84
2024/04/14 01:36:54;;;;;;;1.92;1.05;;;18.20;62.50;;;;;;6431580;22;20215;-84
2024/04/14 01:39:19;;;;;;;0.95;0.80;;;18.20;62.60;;;;;;6432551;22;20254;-84
2024/04/14 01:41:45;;;;;;;0.70;0.70;;;18.20;62.60;;;;;;6476893;22;20212;-83
2024/04/14 01:44:11;;;;;;;1.58;1.17;;;18.20;62.60;;;;;;6432342;22;20656;-84
2024/04/14 01:46:37;;;;;;;1.00;0.80;;;18.20;62.50;;;;;;6475603;22;20941;-84
2024/04/14 01:49:03;;;;;;;0.93;0.80;;;18.20;62.60;;;;;;6476183;22;20291;-83
2024/04/14 01:51:28;;;;;;;1.48;0.85;;;18.20;62.50;;;;;;6433501;22;20313;-84
2024/04/14 01:53:54;;;;;;;1.17;1.00;;;18.20;62.50;;;;;;6433494;22;20698;-84
2024/04/14 01:56:20;;;;;;;1.10;0.98;;;18.20;62.50;;;;;;6474642;22;20671;-84
2024/04/14 01:58:46;;;;;;;0.90;0.90;;;18.30;62.50;;;;;;6475873;22;20215;-83
2024/04/14 02:01:12;;;;;;;1.67;1.15;;;18.20;62.50;;;;;;6433749;22;20215;-84
2024/04/14 02:03:41;;;;;;;1.67;1.00;;;18.30;62.70;;;;;;6475737;22;20325;-84
2024/04/14 02:06:08;;;;;;;1.00;0.90;;;18.20;62.50;;;;;;6475473;22;20215;-84
2024/04/14 02:08:34;;;;;;;0.88;0.85;;;18.20;62.50;;;;;;6433441;22;20330;-85
2024/04/14 02:11:00;;;;;;;1.08;0.88;;;18.20;62.60;;;;;;6433072;22;20267;-84
2024/04/14 02:13:27;;;;;;;2.17;1.00;;;18.20;62.60;;;;;;6433354;22;20656;-84
2024/04/14 02:15:53;;;;;;;1.35;0.95;;;18.20;62.60;;;;;;6476082;22;20215;-84
2024/04/14 02:18:19;;;;;;;1.27;0.70;;;18.20;62.60;;;;;;6434047;22;20250;-84
2024/04/14 02:20:44;;;;;;;4.50;1.20;;;18.20;62.60;;;;;;6475844;22;20212;-84
2024/04/14 02:23:10;;;;;;;1.02;0.80;;;18.20;62.60;;;;;;6433912;22;20610;-83
2024/04/14 02:25:36;;;;;;;1.35;0.90;;;18.20;62.60;;;;;;6476117;22;20663;-84
2024/04/14 02:28:02;;;;;;;0.90;0.80;;;18.20;62.50;;;;;;6433989;22;20348;-84
2024/04/14 02:30:30;;;;;;;1.00;0.90;;;18.20;62.50;;;;;;6475952;22;20211;-84
2024/04/14 02:32:59;;;;;;;1.35;1.00;;;18.20;62.50;;;;;;6477875;22;20215;-83
2024/04/14 02:35:29;;;;;;;1.80;0.93;;;18.20;62.50;;;;;;6475818;22;20219;-84
2024/04/14 02:37:55;;;;;;;1.13;0.88;;;18.20;62.60;;;;;;6432335;22;20219;-84
2024/04/14 02:40:22;;;;;;;1.02;0.95;;;18.20;62.50;;;;;;6475771;22;20211;-84
2024/04/14 02:42:50;;;;;;;1.67;1.00;;;18.20;62.50;;;;;;6433812;22;20235;-84
2024/04/14 02:45:21;;;;;;;1.52;1.02;;;18.20;62.50;;;;;;6432303;22;20215;-84
2024/04/14 02:47:46;;;;;;;1.30;0.95;;;18.20;62.50;;;;;;6391041;22;20231;-84
2024/04/14 02:50:13;;;;;;;1.20;0.90;;;18.20;62.40;;;;;;6475978;22;20350;-84
2024/04/14 02:52:43;;;;;;;1.30;1.10;;;18.20;62.40;;;;;;6476160;22;20343;-84
2024/04/14 02:55:12;;;;;;;0.90;0.70;;;18.20;62.50;;;;;;6402886;22;20235;-86
2024/04/14 02:57:40;;;;;;;1.27;0.98;;;18.20;62.40;;;;;;6390502;22;20265;-84
2024/04/14 03:00:06;;;;;;;1.23;1.00;;;18.20;62.40;;;;;;6390630;22;20216;-84
2024/04/14 03:02:32;;;;;;;2.17;1.10;;;18.20;62.40;;;;;;6475835;22;20298;-84
2024/04/14 03:04:58;;;;;;;0.80;0.77;;;18.20;62.40;;;;;;6391851;22;20667;-84
2024/04/14 03:07:23;;;;;;;1.58;1.10;;;18.20;63.20;;;;;;6391844;22;20552;-84
2024/04/14 03:09:52;;;;;;;1.85;1.00;;;18.20;62.30;;;;;;6391779;22;20698;-84
2024/04/14 03:12:19;;;;;;;1.75;1.10;;;18.20;62.30;;;;;;6433406;22;20219;-84
2024/04/14 03:14:48;;;;;;;1.20;1.10;;;18.20;62.30;;;;;;6433801;22;20421;-84
2024/04/14 03:17:14;;;;;;;1.38;0.95;;;18.30;62.40;;;;;;6391051;22;20270;-84
2024/04/14 03:19:40;;;;;;;0.85;0.80;;;18.20;62.40;;;;;;6475580;22;20219;-84
2024/04/14 03:22:07;;;;;;;1.35;0.90;;;18.20;62.40;;;;;;6433471;22;20223;-84
2024/04/14 03:24:32;;;;;;;1.13;0.90;;;18.20;62.30;;;;;;6433340;22;20557;-84
2024/04/14 03:26:58;;;;;;;1.10;0.90;;;18.20;62.40;;;;;;6391420;22;20231;-84
2024/04/14 03:29:24;;;;;;;1.10;0.90;;;18.20;62.50;;;;;;6433280;22;20655;-85
2024/04/14 03:31:52;;;;;;;1.00;0.80;;;18.20;62.40;;;;;;6433397;22;20266;-84
2024/04/14 03:34:18;;;;;;;1.88;1.10;;;18.20;62.30;;;;;;6432982;22;20535;-84
2024/04/14 03:36:48;;;;;;;1.20;1.00;;;18.30;62.40;;;;;;6433127;22;20223;-84
2024/04/14 03:39:14;;;;;;;1.50;1.08;;;18.20;63.30;;;;;;6432023;22;20215;-84
2024/04/14 03:41:39;;;;;;;1.13;0.80;;;18.20;62.30;;;;;;6391385;22;20266;-85
2024/04/14 03:44:05;;;;;;;1.13;0.80;;;18.20;62.40;;;;;;6391288;22;20309;-84
2024/04/14 03:46:31;;;;;;;1.35;0.95;;;18.20;62.50;;;;;;6433014;22;20278;-84
2024/04/14 03:48:58;;;;;;;1.48;1.10;;;18.20;62.50;;;;;;6432905;22;20721;-84
2024/04/14 03:51:23;;;;;;;1.33;1.00;;;18.20;62.50;;;;;;6432887;22;20613;-85
2024/04/14 03:53:51;;;;;;;1.88;1.08;;;18.20;62.50;;;;;;6432784;22;20235;-84
2024/04/14 03:56:19;;;;;;;1.90;1.02;;;18.20;62.50;;;;;;6473896;22;20274;-84
2024/04/14 03:58:49;;;;;;;1.33;0.88;;;18.20;62.50;;;;;;6474966;22;20265;-84
2024/04/14 04:01:15;;;;;;;0.88;0.82;;;18.20;62.50;;;;;;6475106;22;20793;-84
2024/04/14 04:03:41;;;;;;;1.70;1.17;;;18.20;62.50;;;;;;6475057;22;20239;-84
2024/04/14 04:06:07;;;;;;;1.17;0.90;;;18.20;62.50;;;;;;6432955;22;20226;-84
2024/04/14 04:08:34;;;;;;;0.80;0.80;;;18.20;62.50;;;;;;6432545;22;20306;-84
2024/04/14 04:11:02;;;;;;;0.95;0.77;;;18.20;62.50;;;;;;6474648;22;20723;-84
2024/04/14 04:13:29;;;;;;;1.35;0.80;;;18.20;62.50;;;;;;6474876;22;20306;-84
2024/04/14 04:16:03;;;;;;;1.48;0.90;;;18.20;62.50;;;;;;6475028;22;20211;-84
2024/04/14 04:18:29;;;;;;;1.38;0.93;;;18.10;62.50;;;;;;6391270;22;20219;-84
2024/04/14 04:21:00;;;;;;;1.38;0.90;;;18.20;62.70;;;;;;6432561;22;20318;-84
2024/04/14 04:23:27;;;;;;;1.10;1.00;;;18.10;62.70;;;;;;6431766;22;20218;-84
2024/04/14 04:25:55;;;;;;;1.55;0.98;;;18.10;62.70;;;;;;6432312;22;20258;-84
2024/04/14 04:28:22;;;;;;;1.30;0.85;;;18.10;62.80;;;;;;6475375;22;20215;-84
2024/04/14 04:30:53;;;;;;;1.35;0.90;;;18.10;62.80;;;;;;6475281;22;20266;-84
2024/04/14 04:33:19;;;;;;;1.92;1.13;;;18.10;62.80;;;;;;6431474;22;20659;-85
2024/04/14 04:36:00;;;;;;;1.25;0.82;;;18.10;62.70;;;;;;6474692;22;20258;-84
2024/04/14 04:38:26;;;;;;;1.80;1.00;;;18.10;62.70;;;;;;6432940;22;20226;-84
2024/04/14 04:40:54;;;;;;;2.05;1.00;;;18.10;62.70;;;;;;6432239;22;20250;-84
2024/04/14 04:43:23;;;;;;;2.50;1.20;;;18.10;62.80;;;;;;6431549;22;20214;-84
2024/04/14 04:45:50;;;;;;;1.17;0.98;;;18.10;62.70;;;;;;6474523;22;20324;-84
2024/04/14 04:48:16;;;;;;;0.70;0.70;;;18.10;62.70;;;;;;6431323;22;20225;-84
2024/04/14 04:50:45;;;;;;;1.45;0.95;;;18.00;62.70;;;;;;6474539;22;20230;-84
2024/04/14 04:53:11;;;;;;;1.45;1.00;;;18.00;62.70;;;;;;6432553;22;20606;-84
2024/04/14 04:55:37;;;;;;;1.38;1.02;;;18.10;62.70;;;;;;6431180;22;20366;-84
2024/04/14 04:58:03;;;;;;;2.47;0.98;;;18.00;62.70;;;;;;6432532;22;20682;-85
2024/04/14 05:00:30;;;;;;;2.08;1.08;;;18.10;62.80;;;;;;6432446;22;20663;-84
2024/04/14 05:02:56;;;;;;;1.38;1.00;;;18.00;62.70;;;;;;6474947;22;20264;-85
2024/04/14 05:05:23;;;;;;;1.67;1.00;;;18.00;62.60;;;;;;6474467;22;20647;-84
2024/04/14 05:07:52;;;;;;;0.82;0.82;;;18.00;62.70;;;;;;6432142;22;20219;-84
2024/04/14 05:10:18;;;;;;;2.22;1.20;;;18.00;62.70;;;;;;6432131;22;20215;-84
2024/04/14 05:12:44;;;;;;;2.00;1.00;;;18.10;62.70;;;;;;6432923;22;20562;-84
2024/04/14 05:15:12;;;;;;;1.27;1.00;;;18.10;62.80;;;;;;6432491;22;20223;-84
2024/04/14 05:17:38;;;;;;;0.88;0.82;;;18.10;62.90;;;;;;6474623;22;20218;-84
2024/04/14 05:20:04;;;;;;;0.85;0.70;;;18.10;62.70;;;;;;6475141;22;20211;-84
2024/04/14 05:22:30;;;;;;;1.73;0.88;;;18.10;62.80;;;;;;6476468;22;20609;-84
2024/04/14 05:24:55;;;;;;;1.17;1.00;;;18.00;62.80;;;;;;6479142;22;20224;-84
2024/04/14 05:27:21;;;;;;;1.33;1.00;;;18.10;62.80;;;;;;6434447;22;20647;-84
2024/04/14 05:29:47;;;;;;;2.35;1.00;;;18.10;62.70;;;;;;6434571;22;20223;-84
2024/04/14 05:32:14;;;;;;;0.88;0.80;;;18.10;62.80;;;;;;6434512;22;20215;-84
2024/04/14 05:34:40;;;;;;;0.85;0.65;;;18.10;63.60;;;;;;6434464;22;20663;-84
2024/04/14 05:37:05;;;;;;;1.13;1.02;;;18.10;62.80;;;;;;6434330;22;20335;-84
2024/04/14 05:39:32;;;;;;;1.23;0.93;;;18.00;62.80;;;;;;6478901;22;20258;-85
2024/04/14 05:41:57;;;;;;;1.10;0.80;;;18.00;62.90;;;;;;6434929;22;20227;-85
2024/04/14 05:44:24;;;;;;;1.77;0.90;;;18.00;63.00;;;;;;6434850;22;20215;-84
2024/04/14 05:46:50;;;;;;;1.25;0.90;;;18.00;63.00;;;;;;6434783;22;20535;-84
2024/04/14 05:49:20;;;;;;;1.13;0.80;;;18.00;63.00;;;;;;6434424;22;20283;-84
2024/04/14 05:51:46;;;;;;;1.67;1.00;;;18.00;63.00;;;;;;6477287;22;20287;-85
2024/04/14 05:54:12;;;;;;;2.00;0.88;;;18.00;63.00;;;;;;6479538;21;20659;-83
2024/04/14 05:56:38;;;;;;;18.42;2.10;;;17.90;63.00;;;;;;6493775;21;20321;-87
2024/04/14 05:59:04;;;;;;;3.22;1.00;;;18.00;63.20;;;;;;6453298;21;20296;-84
2024/04/14 06:01:37;;;;;;;2.15;0.93;;;18.00;63.00;;;;;;6495915;21;20220;-86
2024/04/14 06:04:04;;;;;;;1.63;1.17;;;18.10;63.20;;;;;;6458838;21;20264;-86
2024/04/14 06:06:31;;;;;;;2.00;0.95;;;18.00;63.00;;;;;;6394470;22;20219;-86
2024/04/14 06:09:25;;;;;;;1.13;0.90;;;18.00;63.00;;;;;;6360244;22;20231;-87
2024/04/14 06:12:01;;;;;;;1.27;1.08;;;18.10;63.10;;;;;;6386316;22;20289;-87
2024/04/14 06:14:38;;;;;;;1.80;1.20;;;18.00;63.10;;;;;;6246134;22;20222;-87
2024/04/14 06:17:05;;;;;;;2.00;1.05;;;18.00;63.20;;;;;;6243874;22;20227;-87
2024/04/14 06:19:31;;;;;;;1.15;1.05;;;18.00;63.30;;;;;;6167978;22;20619;-87
2024/04/14 06:22:08;;;;;;;1.38;0.85;;;18.00;63.30;;;;;;6163049;22;20227;-88
2024/04/14 06:24:35;;;;;;;1.00;0.80;;;18.00;63.20;;;;;;6065565;23;20246;-87
2024/04/14 06:27:04;;;;;;;1.55;0.98;;;18.00;63.00;;;;;;6026850;23;20235;-87
2024/04/14 06:29:37;;;;;;;1.40;0.90;;;18.00;63.20;;;;;;6102970;23;20274;-88
2024/04/14 06:32:11;;;;;;;1.73;1.00;;;18.00;63.10;;;;;;6073968;23;20270;-88
2024/04/14 06:34:37;;;;;;;1.38;1.00;;;18.00;63.20;;;;;;6109695;23;20226;-88
2024/04/14 06:37:11;;;;;;;1.63;0.93;;;18.00;63.10;;;;;;6063502;23;20324;-88
2024/04/14 06:39:44;;;;;;;2.33;1.00;;;18.00;63.10;;;;;;6029330;23;20265;-87
2024/04/14 06:42:19;;;;;;;1.15;0.90;;;18.00;62.90;;;;;;6075760;23;20313;-87
2024/04/14 06:44:54;;;;;;;1.67;0.90;;;18.00;63.00;;;;;;6112417;23;20225;-87
2024/04/14 06:47:22;;;;;;;1.38;1.00;;;18.00;63.20;;;;;;5961548;23;20272;-89
2024/04/14 06:49:51;;;;;;;3.75;1.10;;;18.00;63.00;;;;;;5933855;23;20275;-86
2024/04/14 06:52:18;;;;;;;2.50;0.73;;;18.00;63.00;;;;;;6051832;23;20226;-88
2024/04/14 06:54:46;;;;;;;1.75;0.90;;;18.00;63.10;;;;;;6080579;23;20278;-88
2024/04/14 06:57:14;;;;;;;1.35;1.10;;;18.00;63.00;;;;;;6154237;23;20240;-89
2024/04/14 06:59:46;;;;;;;1.80;0.80;;;18.00;63.00;;;;;;6192793;23;20233;-87
2024/04/14 07:02:28;;;;;;;;;;;;;;;;;;;;;
2024/04/14 07:05:02;;;;;;;0.85;0.82;;;18.00;63.00;;;;;;6118386;23;20234;-85
2024/04/14 07:07:33;;;;;;;1.48;0.95;;;18.10;62.90;;;;;;6178696;23;20231;-87
2024/04/14 07:10:05;;;;;;;2.30;0.82;;;18.10;63.10;;;;;;6148419;23;20803;-88
2024/04/14 07:12:37;;;;;;;1.83;1.10;;;18.10;63.30;;;;;;6146579;23;20237;-86
2024/04/14 07:15:46;;;;;;;2.35;0.98;;;18.10;63.00;;;;;;6147075;23;20233;-86
2024/04/14 07:18:15;;;;;;;2.35;1.00;;;18.20;63.00;;;;;;6208472;22;20290;-85
2024/04/14 07:20:53;;;;;;;;;;;;;;;;;;;;;
2024/04/14 07:24:08;;;;;;;3.25;1.10;;;18.30;62.30;;;;;;6249965;22;20261;-87
2024/04/14 07:27:07;;;;;;;;;;;;;;;;;;;;;
2024/04/14 07:30:25;;;;;;;;;;;;;;;;;;;;;
2024/04/14 07:33:09;;;;;;;;;;;;;;;;;;;;;
2024/04/14 07:35:46;;;;;;;1.83;0.85;;;18.40;62.20;;;;;;5850045;24;20327;-86
2024/04/14 07:38:59;;;;;;;3.15;0.90;;;18.40;62.10;;;;;;5813352;24;20798;-85
2024/04/14 07:41:30;;;;;;;2.50;0.80;;;18.40;62.30;;;;;;5962210;23;20264;-85
2024/04/14 07:44:00;;;;;;;4.30;1.13;;;18.50;62.20;;;;;;6003391;23;20680;-86
2024/04/14 07:46:43;;;;;;;4.05;0.90;;;18.60;62.20;;;;;;5966145;23;20230;-87
2024/04/14 07:49:09;;;;;;;4.07;0.82;;;18.60;62.20;;;;;;5965770;23;20239;-86
2024/04/14 07:51:41;;;;;;;2.30;0.70;;;18.60;62.10;;;;;;5917379;24;20635;-86
2024/04/14 16:23:00;;;;;;;2.53;0.50;;;19.00;64.30;;;;;;6526471;21;20245;-83
2024/04/14 16:25:25;;;;;;;3.22;0.63;;;19.00;64.50;;;;;;6540851;21;20732;-83
2024/04/14 16:27:51;;;;;;;2.85;0.47;;;19.10;65.00;;;;;;6496641;21;20241;-83
2024/04/14 16:30:19;;;;;;;2.60;0.60;;;19.10;64.60;;;;;;6495007;21;20638;-83
2024/04/14 16:32:48;;;;;;;5.28;0.70;;;19.20;64.70;;;;;;6495273;21;20620;-82
2024/04/14 16:35:16;;;;;;;3.25;0.57;;;19.00;64.70;;;;;;6454432;21;20247;-83
2024/04/14 16:37:42;;;;;;;5.40;0.60;;;19.00;64.20;;;;;;6454661;21;20232;-82
2024/04/14 16:40:08;;;;;;;2.72;0.50;;;19.00;65.40;;;;;;6498103;21;20338;-82
2024/04/14 16:42:34;;;;;;;1.83;0.50;;;19.00;64.30;;;;;;6542128;21;20260;-83
2024/04/14 16:45:00;;;;;;;4.22;0.60;;;19.00;64.80;;;;;;6456365;21;20518;-82
2024/04/14 16:47:25;;;;;;;0.75;0.60;;;19.10;64.10;;;;;;6455473;21;20225;-82
2024/04/14 16:49:52;;;;;;;3.10;0.50;;;19.00;64.20;;;;;;6539859;21;20229;-82
2024/04/14 16:52:19;;;;;;;1.60;0.73;;;19.00;64.30;;;;;;6495710;21;20221;-82
2024/04/14 16:54:46;;;;;;;1.30;0.40;;;19.00;64.30;;;;;;6453286;21;20217;-82
2024/04/14 16:57:35;;;;;;;0.85;0.30;;;19.00;64.60;;;;;;6500143;21;20216;-84
2024/04/14 17:00:01;;;;;;;3.17;0.40;;;19.00;64.60;;;;;;6513766;21;20280;-83
2024/04/14 17:02:27;;;;;;;0.70;0.50;;;19.00;64.20;;;;;;6541157;21;20307;-83
2024/04/14 17:04:54;;;;;;;1.70;0.45;;;19.00;64.60;;;;;;6457943;21;20260;-82
2024/04/14 17:07:25;;;;;;;1.63;0.70;;;19.00;65.40;;;;;;6542934;21;20213;-83
2024/04/14 17:09:51;;;;;;;1.65;0.47;;;18.90;65.10;;;;;;6454436;21;20310;-82
2024/04/14 17:12:17;;;;;;;2.00;0.60;;;18.90;65.50;;;;;;6454276;21;20554;-82
2024/04/14 17:14:42;;;;;;;1.70;0.50;;;19.00;65.50;;;;;;6498623;21;20225;-82
2024/04/14 17:17:09;;;;;;;2.70;0.40;;;19.00;65.10;;;;;;6499489;21;20213;-82
2024/04/14 17:19:39;;;;;;;3.50;0.70;;;19.00;65.00;;;;;;6507659;21;20508;-83
2024/04/14 17:22:09;;;;;;;3.80;0.70;;;19.00;64.80;;;;;;6457743;22;20546;-83
2024/04/14 17:24:38;;;;;;;0.80;0.30;;;19.00;65.20;;;;;;6420499;22;20540;-83
2024/04/14 17:27:04;;;;;;;1.27;0.50;;;19.00;65.30;;;;;;6448241;22;20703;-83
2024/04/14 17:29:30;;;;;;;1.98;0.60;;;19.00;65.40;;;;;;6447872;22;20218;-83
2024/04/14 17:32:02;;;;;;;1.05;0.65;;;18.90;65.40;;;;;;6390320;22;20225;-83
2024/04/14 17:34:28;;;;;;;0.85;0.50;;;18.90;65.50;;;;;;6391791;22;20259;-82
2024/04/14 17:36:54;;;;;;;3.90;0.47;;;18.90;65.40;;;;;;6389419;22;20300;-82
2024/04/14 17:39:27;;;;;;;2.45;0.50;;;18.90;65.50;;;;;;6351849;22;20229;-83
2024/04/14 17:41:55;;;;;;;1.15;0.35;;;18.90;64.90;;;;;;6353036;22;20280;-83
2024/04/14 17:44:33;;;;;;;1.35;0.40;;;18.90;65.20;;;;;;6349352;22;20217;-82
2024/04/14 17:47:07;;;;;;;3.13;0.50;;;18.90;65.40;;;;;;6307471;22;20221;-83
2024/04/14 17:49:40;;;;;;;1.35;0.50;;;18.90;65.20;;;;;;6291098;22;20266;-83
2024/04/14 17:52:09;;;;;;;3.22;0.55;;;18.90;65.30;;;;;;6204445;23;20678;-82
2024/04/14 17:54:35;;;;;;;1.48;0.40;;;18.90;65.40;;;;;;6205658;23;20340;-83
2024/04/14 17:57:01;;;;;;;1.08;0.47;;;18.90;65.50;;;;;;6243208;23;20232;-82
2024/04/14 17:59:26;;;;;;;3.10;0.50;;;18.90;65.20;;;;;;6251787;22;20231;-83
2024/04/14 18:01:59;;;;;;;1.77;0.40;;;18.90;65.00;;;;;;6214157;22;20227;-83
2024/04/14 18:04:31;;;;;;;1.50;0.50;;;18.90;64.70;;;;;;6394764;22;20216;-83
2024/04/14 18:07:01;;;;;;;1.88;0.40;;;19.00;64.80;;;;;;6310272;22;20246;-82
2024/04/14 18:09:37;;;;;;;2.03;0.50;;;19.00;64.20;;;;;;6316741;22;20247;-82
2024/04/14 18:12:05;;;;;;;1.17;0.40;;;19.00;65.00;;;;;;6356164;22;20228;-82
2024/04/14 18:14:32;;;;;;;1.38;0.60;;;18.90;65.00;;;;;;6311502;22;20263;-83
2024/04/14 18:16:57;;;;;;;2.92;0.55;;;18.90;65.00;;;;;;6310931;22;20684;-82
2024/04/14 18:19:26;;;;;;;1.77;0.40;;;18.90;65.10;;;;;;6304044;22;20306;-83
2024/04/14 18:21:52;;;;;;;2.10;0.30;;;18.80;65.80;;;;;;6260620;22;20261;-83
2024/04/14 18:24:23;;;;;;;0.60;0.38;;;18.90;64.80;;;;;;6468326;22;20265;-82
2024/04/14 18:26:54;;;;;;;0.50;0.43;;;18.80;64.20;;;;;;6444786;22;20226;-83
2024/04/14 18:29:21;;;;;;;3.50;0.40;;;18.90;65.00;;;;;;6488419;22;20226;-83
2024/04/14 18:31:53;;;;;;;1.85;0.40;;;18.90;64.90;;;;;;6485401;22;20221;-83
2024/04/14 18:34:20;;;;;;;1.27;0.50;;;18.80;64.90;;;;;;6444391;22;20257;-82
2024/04/14 18:36:48;;;;;;;0.85;0.52;;;18.90;64.70;;;;;;6443965;22;20278;-83
2024/04/14 18:39:17;;;;;;;1.67;0.50;;;18.90;64.30;;;;;;6529902;22;20261;-83
2024/04/14 18:41:43;;;;;;;1.33;0.57;;;18.90;64.00;;;;;;6485045;22;20222;-84
2024/04/14 18:44:09;;;;;;;1.80;0.40;;;18.90;64.60;;;;;;6483130;22;20265;-84
2024/04/14 18:46:35;;;;;;;1.08;0.45;;;18.90;64.50;;;;;;6482620;22;20670;-85
2024/04/14 18:49:00;;;;;;;2.28;0.40;;;18.80;64.70;;;;;;6482918;22;20537;-84
2024/04/14 18:51:26;;;;;;;0.32;0.30;;;18.80;64.90;;;;;;6535591;21;20541;-83
2024/04/14 18:53:53;;;;;;;1.25;0.50;;;18.80;65.00;;;;;;6534747;21;20225;-84
2024/04/14 18:56:19;;;;;;;1.05;0.30;;;18.80;64.90;;;;;;6576089;21;20269;-84
2024/04/14 18:58:44;;;;;;;0.30;0.30;;;18.80;64.90;;;;;;6577317;21;20225;-83
2024/04/14 19:01:11;;;;;;;0.93;0.35;;;18.80;64.80;;;;;;6535947;21;20209;-85
2024/04/14 19:03:37;;;;;;;2.08;0.52;;;18.80;64.90;;;;;;6535748;21;20217;-84
2024/04/14 19:06:03;;;;;;;0.82;0.50;;;18.80;65.20;;;;;;6578756;21;20517;-84
2024/04/14 19:08:29;;;;;;;1.23;0.45;;;18.70;65.00;;;;;;6492792;21;20217;-84
2024/04/14 19:10:55;;;;;;;1.67;0.40;;;18.80;65.00;;;;;;6578592;21;20256;-84
2024/04/14 19:13:21;;;;;;;0.73;0.40;;;18.80;65.20;;;;;;6535702;21;20220;-83
2024/04/14 19:15:48;;;;;;;0.70;0.45;;;18.80;65.00;;;;;;6535442;21;20314;-84
2024/04/14 19:18:14;;;;;;;1.08;0.47;;;18.80;64.70;;;;;;6535230;21;20225;-84
2024/04/14 19:20:40;;;;;;;1.05;0.40;;;18.80;64.80;;;;;;6578569;21;20282;-84
2024/04/14 19:23:07;;;;;;;0.88;0.32;;;18.80;64.40;;;;;;6534833;21;20217;-83
2024/04/14 19:25:33;;;;;;;2.25;0.40;;;18.80;64.30;;;;;;6493188;21;20614;-84
2024/04/14 19:28:04;;;;;;;3.45;0.50;;;18.80;64.50;;;;;;6492503;21;20672;-83
2024/04/14 19:30:31;;;;;;;0.30;0.30;;;18.80;64.20;;;;;;6407809;21;20284;-84
2024/04/14 19:32:56;;;;;;;0.70;0.30;;;18.80;64.80;;;;;;6449405;21;20376;-83
2024/04/14 19:35:22;;;;;;;1.65;0.32;;;18.80;64.70;;;;;;6491529;21;20228;-83
2024/04/14 19:37:52;;;;;;;0.65;0.32;;;18.80;64.60;;;;;;6491511;21;20243;-84
2024/04/14 19:40:18;;;;;;;0.93;0.40;;;18.80;64.70;;;;;;6365413;21;20225;-84
2024/04/14 19:42:44;;;;;;;0.43;0.43;;;18.80;64.30;;;;;;6450054;21;20221;-84
2024/04/14 19:45:10;;;;;;;0.50;0.30;;;18.80;64.20;;;;;;6534943;21;20677;-84
2024/04/14 19:47:37;;;;;;;2.63;0.50;;;18.80;64.50;;;;;;6449921;21;20225;-84
2024/04/14 19:50:03;;;;;;;1.05;0.57;;;18.80;64.50;;;;;;6448775;21;20218;-84
2024/04/14 19:52:29;;;;;;;0.65;0.40;;;18.80;64.60;;;;;;6492433;21;20220;-84
2024/04/14 19:54:56;;;;;;;2.00;0.40;;;18.80;64.40;;;;;;6491360;21;20571;-85
2024/04/14 19:57:23;;;;;;;0.45;0.40;;;18.80;64.70;;;;;;6492365;21;20229;-84
2024/04/14 19:59:52;;;;;;;1.00;0.40;;;18.80;64.80;;;;;;6534943;21;20224;-84
2024/04/14 20:02:18;;;;;;;2.10;0.35;;;18.80;64.70;;;;;;6493389;21;20248;-84
2024/04/14 20:04:46;;;;;;;0.30;0.30;;;18.80;64.50;;;;;;6492528;21;20574;-84
2024/04/14 20:07:11;;;;;;;2.08;0.55;;;18.80;64.80;;;;;;6493066;21;20220;-84
2024/04/14 20:09:37;;;;;;;0.85;0.32;;;18.70;64.90;;;;;;6449968;21;20224;-83
2024/04/14 20:12:03;;;;;;;0.95;0.45;;;18.80;64.80;;;;;;6535795;21;20322;-83
2024/04/14 20:14:29;;;;;;;1.08;0.30;;;18.80;64.60;;;;;;6492392;21;20217;-84
2024/04/14 20:16:55;;;;;;;0.55;0.40;;;18.80;64.80;;;;;;6492308;21;20513;-84
2024/04/14 20:19:21;;;;;;;0.50;0.40;;;18.70;64.90;;;;;;6492328;21;20225;-83
2024/04/14 20:21:51;;;;;;;0.88;0.40;;;18.80;65.00;;;;;;6535312;21;20276;-83
2024/04/14 20:24:17;;;;;;;0.63;0.30;;;18.70;65.10;;;;;;6448591;21;20229;-83
2024/04/14 20:26:44;;;;;;;1.75;0.50;;;18.80;65.10;;;;;;6534680;21;20267;-83
2024/04/14 20:29:12;;;;;;;0.80;0.32;;;18.70;65.00;;;;;;6449518;21;20568;-83
2024/04/14 20:31:38;;;;;;;0.40;0.38;;;18.70;65.20;;;;;;6492030;21;20264;-84
2024/04/14 20:34:03;;;;;;;0.40;0.40;;;18.70;65.10;;;;;;6491747;21;20220;-84
2024/04/14 20:36:29;;;;;;;0.70;0.40;;;18.70;65.00;;;;;;6492497;21;20533;-84
2024/04/14 20:38:56;;;;;;;1.00;0.50;;;18.70;65.10;;;;;;6491930;21;20552;-84
2024/04/14 20:41:23;;;;;;;0.55;0.40;;;18.70;65.20;;;;;;6492896;21;20777;-83
2024/04/14 20:43:52;;;;;;;0.85;0.40;;;18.70;65.10;;;;;;6534994;21;20310;-85
2024/04/14 20:46:18;;;;;;;0.40;0.40;;;18.70;64.90;;;;;;6406858;21;20221;-83
2024/04/14 20:48:45;;;;;;;2.17;0.50;;;18.70;65.20;;;;;;6492201;21;20334;-85
2024/04/14 20:51:12;;;;;;;1.10;0.68;;;18.70;65.20;;;;;;6450293;21;20221;-83
2024/04/14 20:53:39;;;;;;;1.23;0.40;;;18.70;65.10;;;;;;6492166;21;20302;-83
2024/04/14 20:56:09;;;;;;;0.30;0.30;;;18.70;65.20;;;;;;6534088;21;20606;-85
2024/04/14 20:58:35;;;;;;;0.73;0.35;;;18.70;65.30;;;;;;6406350;21;20244;-84
2024/04/14 21:01:04;;;;;;;1.27;0.52;;;18.80;65.50;;;;;;6449671;21;20217;-84
2024/04/14 21:03:30;;;;;;;1.15;0.38;;;18.70;65.20;;;;;;6534510;21;20303;-84
2024/04/14 21:05:56;;;;;;;1.33;0.55;;;18.70;65.40;;;;;;6491860;21;20221;-84
2024/04/14 21:08:22;;;;;;;0.50;0.47;;;18.70;65.40;;;;;;6492023;21;20213;-83
2024/04/14 21:10:47;;;;;;;2.03;0.50;;;18.70;65.50;;;;;;6449285;21;20220;-84
2024/04/14 21:13:13;;;;;;;1.85;0.45;;;18.70;65.40;;;;;;6492198;21;20213;-83
2024/04/14 21:15:39;;;;;;;1.02;0.52;;;18.70;65.20;;;;;;6534922;21;20263;-85
2024/04/14 21:18:05;;;;;;;0.45;0.40;;;18.70;65.20;;;;;;6449560;21;20229;-85
2024/04/14 21:20:31;;;;;;;1.13;0.45;;;18.60;65.10;;;;;;6491706;21;20221;-83
2024/04/14 21:22:57;;;;;;;1.17;0.47;;;18.70;65.30;;;;;;6449437;21;20229;-84
2024/04/14 21:25:22;;;;;;;0.40;0.40;;;18.70;65.20;;;;;;6491240;21;20347;-84
2024/04/14 21:27:49;;;;;;;0.30;0.30;;;18.60;65.00;;;;;;6492155;21;20712;-83